Time;durP1;ratioP1;P1;durP2;ratioP2;P2;SDS_P1;SDS_P2;PMS_P1;PMS_P2;Temp;Humidity;BMP_temperature;BMP_pressure;BME280_temperature;BME280_humidity;BME280_pressure;Samples;Min_cycle;Max_cycle;Signal;HPM_P1;HPM_P2
2023/02/13 00:00:19;;;;;;;22.47;12.80;;;;;;;;;;5051525;28;20302;-79
2023/02/13 00:02:47;;;;;;;20.33;13.30;;;;;;;;;;5051049;28;20235;-79
2023/02/13 00:05:14;;;;;;;22.07;13.80;;;;;;;;;;5046666;28;20579;-79
2023/02/13 00:07:42;;;;;;;21.10;13.63;;;;;;;;;;5048703;28;20223;-79
2023/02/13 00:10:10;;;;;;;20.70;12.47;;;;;;;;;;5037687;28;20649;-79
2023/02/13 00:12:37;;;;;;;21.60;13.80;;;;;;;;;;5045811;28;20246;-79
2023/02/13 00:15:05;;;;;;;21.63;13.43;;;;;;;;;;5049282;28;20299;-78
2023/02/13 00:17:32;;;;;;;22.63;14.07;;;;;;;;;;5031593;28;20235;-79
2023/02/13 00:19:59;;;;;;;26.40;15.33;;;;;;;;;;5038634;28;20222;-80
2023/02/13 00:22:27;;;;;;;27.37;16.87;;;;;;;;;;5050825;28;20226;-78
2023/02/13 00:24:55;;;;;;;20.33;14.00;;;;;;;;;;5050479;28;20251;-80
2023/02/13 00:27:22;;;;;;;22.53;13.93;;;;;;;;;;5050872;28;20811;-79
2023/02/13 00:29:50;;;;;;;20.77;13.73;;;;;;;;;;5050583;28;20295;-78
2023/02/13 00:32:17;;;;;;;25.13;14.77;;;;;;;;;;5049640;28;20199;-79
2023/02/13 00:34:44;;;;;;;19.97;13.03;;;;;;;;;;5050518;28;20681;-79
2023/02/13 00:37:11;;;;;;;20.20;13.50;;;;;;;;;;5049634;28;20253;-78
2023/02/13 00:39:39;;;;;;;24.00;17.67;;;;;;;;;;5049963;28;20200;-79
2023/02/13 00:42:07;;;;;;;27.60;17.27;;;;;;;;;;5048681;28;20286;-79
2023/02/13 00:44:34;;;;;;;24.80;16.30;;;;;;;;;;5049489;28;20722;-78
2023/02/13 00:47:02;;;;;;;24.60;15.77;;;;;;;;;;5050520;28;20691;-79
2023/02/13 00:49:29;;;;;;;22.47;14.97;;;;;;;;;;5049832;28;20234;-79
2023/02/13 00:51:56;;;;;;;24.67;15.70;;;;;;;;;;5049819;28;20268;-79
2023/02/13 00:54:23;;;;;;;26.47;15.13;;;;;;;;;;5049893;28;20231;-79
2023/02/13 00:56:51;;;;;;;23.23;14.80;;;;;;;;;;5050963;28;20564;-80
2023/02/13 00:59:19;;;;;;;24.93;15.30;;;;;;;;;;5051320;28;20272;-79
2023/02/13 01:01:46;;;;;;;23.77;15.07;;;;;;;;;;5049161;28;20735;-80
2023/02/13 01:04:14;;;;;;;26.30;15.20;;;;;;;;;;5053824;28;20794;-79
2023/02/13 01:06:41;;;;;;;24.87;15.30;;;;;;;;;;5053768;28;20196;-80
2023/02/13 01:09:08;;;;;;;23.63;15.50;;;;;;;;;;5054106;28;20196;-79
2023/02/13 01:11:35;;;;;;;23.87;14.03;;;;;;;;;;5054431;28;20269;-79
2023/02/13 01:14:03;;;;;;;20.90;14.87;;;;;;;;;;5052747;28;20327;-80
2023/02/13 01:16:31;;;;;;;24.13;15.03;;;;;;;;;;5054003;28;20235;-80
2023/02/13 01:18:58;;;;;;;24.47;15.40;;;;;;;;;;5041131;28;20295;-79
2023/02/13 01:21:26;;;;;;;24.37;15.53;;;;;;;;;;5050380;28;20219;-79
2023/02/13 01:23:53;;;;;;;25.97;14.30;;;;;;;;;;5034675;28;20291;-79
2023/02/13 01:26:21;;;;;;;24.73;14.70;;;;;;;;;;5052003;28;20329;-80
2023/02/13 01:28:48;;;;;;;22.60;14.33;;;;;;;;;;5053024;28;20242;-80
2023/02/13 01:31:15;;;;;;;24.33;13.97;;;;;;;;;;5053431;28;20235;-78
2023/02/13 01:33:44;;;;;;;22.57;13.13;;;;;;;;;;5052842;28;20230;-80
2023/02/13 01:36:13;;;;;;;23.00;13.83;;;;;;;;;;5053047;28;20249;-78
2023/02/13 01:38:40;;;;;;;23.47;13.57;;;;;;;;;;5053049;28;20206;-78
2023/02/13 01:41:07;;;;;;;22.90;14.20;;;;;;;;;;5049354;28;20297;-77
2023/02/13 01:43:48;;;;;;;22.57;13.87;;;;;;;;;;5052904;28;20203;-78
2023/02/13 01:46:17;;;;;;;24.60;14.00;;;;;;;;;;5052589;28;20676;-78
2023/02/13 01:48:46;;;;;;;25.13;14.30;;;;;;;;;;5052212;28;20292;-78
2023/02/13 01:51:15;;;;;;;26.80;14.73;;;;;;;;;;5050247;28;20293;-78
2023/02/13 01:53:44;;;;;;;23.87;14.80;;;;;;;;;;5052514;28;20351;-77
2023/02/13 01:56:13;;;;;;;25.23;14.63;;;;;;;;;;5052926;28;20291;-78
2023/02/13 01:58:42;;;;;;;23.60;15.27;;;;;;;;;;5052604;28;20238;-78
2023/02/13 02:01:10;;;;;;;24.07;13.77;;;;;;;;;;5052855;28;20258;-78
2023/02/13 02:03:39;;;;;;;22.60;14.53;;;;;;;;;;5051359;28;20241;-77
2023/02/13 02:06:10;;;;;;;21.53;13.70;;;;;;;;;;5049356;28;20322;-80
2023/02/13 02:08:37;;;;;;;21.10;13.60;;;;;;;;;;5052081;28;20234;-81
2023/02/13 02:11:08;;;;;;;22.50;14.07;;;;;;;;;;5047264;28;20245;-80
2023/02/13 02:13:35;;;;;;;23.33;14.60;;;;;;;;;;5051189;28;20230;-79
2023/02/13 02:16:03;;;;;;;22.67;14.70;;;;;;;;;;5051296;28;20649;-80
2023/02/13 02:18:30;;;;;;;23.03;14.73;;;;;;;;;;5052093;28;20281;-80
2023/02/13 02:21:27;;;;;;;24.40;14.47;;;;;;;;;;5050738;28;20285;-79
2023/02/13 02:24:09;;;;;;;23.93;14.23;;;;;;;;;;5050917;28;20692;-79
2023/02/13 02:26:45;;;;;;;24.73;15.03;;;;;;;;;;5041593;28;20256;-80
2023/02/13 02:29:25;;;;;;;25.07;14.27;;;;;;;;;;5051754;28;20284;-79
2023/02/13 02:32:04;;;;;;;25.20;14.47;;;;;;;;;;5051801;28;20732;-79
2023/02/13 02:34:34;;;;;;;24.37;14.90;;;;;;;;;;5050366;28;20289;-78
2023/02/13 02:37:14;;;;;;;26.70;15.23;;;;;;;;;;5051821;28;20658;-79
2023/02/13 02:39:47;;;;;;;24.73;14.37;;;;;;;;;;5050894;28;20252;-79
2023/02/13 02:42:19;;;;;;;25.63;14.53;;;;;;;;;;5052218;28;20642;-78
2023/02/13 02:44:52;;;;;;;24.10;14.83;;;;;;;;;;5051293;28;20322;-79
2023/02/13 02:50:27;;;;;;;23.43;13.83;;;;;;;;;;4968234;28;20291;-80
2023/02/13 02:52:58;;;;;;;24.60;14.50;;;;;;;;;;4970070;28;20205;-80
2023/02/13 02:55:30;;;;;;;23.77;14.27;;;;;;;;;;4970714;28;20369;-80
2023/02/13 03:06:22;;;;;;;24.67;13.13;;;;;;;;;;4970871;28;20392;-79
2023/02/13 03:14:24;;;;;;;26.80;14.93;;;;;;;;;;4969938;28;20274;-80
2023/02/13 03:22:33;;;;;;;22.87;14.93;;;;;;;;;;5048556;28;20224;-80
2023/02/13 03:25:02;;;;;;;23.43;14.60;;;;;;;;;;5050447;28;20328;-79
2023/02/13 03:30:23;;;;;;;24.40;14.73;;;;;;;;;;5040380;28;20215;-80
2023/02/13 03:32:54;;;;;;;23.77;13.70;;;;;;;;;;5049687;28;20282;-79
2023/02/13 03:38:17;;;;;;;23.37;14.00;;;;;;;;;;5050844;28;20211;-79
2023/02/13 03:43:31;;;;;;;24.97;14.43;;;;;;;;;;5049583;28;20207;-78
2023/02/13 03:46:01;;;;;;;26.13;15.80;;;;;;;;;;5050346;28;20318;-80
2023/02/13 03:51:19;;;;;;;29.50;15.97;;;;;;;;;;5050190;28;20254;-80
2023/02/13 03:53:49;;;;;;;30.93;17.13;;;;;;;;;;5050367;28;20228;-79
2023/02/13 03:59:16;;;;;;;29.93;15.93;;;;;;;;;;5050342;28;20642;-80
2023/02/13 04:01:46;;;;;;;26.57;14.93;;;;;;;;;;5049803;28;20227;-80
2023/02/13 04:04:17;;;;;;;25.30;14.37;;;;;;;;;;5050416;28;20246;-77
2023/02/13 04:06:48;;;;;;;24.07;14.60;;;;;;;;;;5050593;28;20322;-79
2023/02/13 04:09:15;;;;;;;25.23;15.77;;;;;;;;;;5050357;28;20235;-79
2023/02/13 04:11:48;;;;;;;27.07;14.60;;;;;;;;;;5050334;28;20292;-80
2023/02/13 04:14:18;;;;;;;28.73;13.63;;;;;;;;;;5049642;28;20260;-79
2023/02/13 04:16:47;;;;;;;33.13;14.53;;;;;;;;;;5048683;28;20196;-79
2023/02/13 04:19:15;;;;;;;25.97;14.23;;;;;;;;;;5049351;28;20700;-80
2023/02/13 04:21:42;;;;;;;21.87;13.87;;;;;;;;;;5043714;28;20282;-79
2023/02/13 04:24:11;;;;;;;25.60;14.47;;;;;;;;;;5049709;28;20234;-79
2023/02/13 04:26:39;;;;;;;26.83;15.37;;;;;;;;;;5049018;28;20223;-80
2023/02/13 04:29:07;;;;;;;26.43;15.67;;;;;;;;;;5049006;28;20619;-78
2023/02/13 04:31:34;;;;;;;30.37;16.57;;;;;;;;;;5049871;28;20196;-79
2023/02/13 04:34:01;;;;;;;32.40;17.17;;;;;;;;;;5053117;28;20252;-79
2023/02/13 04:36:29;;;;;;;30.37;16.83;;;;;;;;;;5053232;28;20266;-79
2023/02/13 04:38:56;;;;;;;34.17;17.40;;;;;;;;;;5053898;28;20219;-80
2023/02/13 04:41:24;;;;;;;30.80;16.67;;;;;;;;;;5053600;28;20692;-79
2023/02/13 04:43:52;;;;;;;30.50;16.23;;;;;;;;;;5055005;28;20281;-79
2023/02/13 04:46:19;;;;;;;32.57;17.10;;;;;;;;;;5054064;28;20227;-79
2023/02/13 04:48:46;;;;;;;36.73;18.07;;;;;;;;;;5053939;28;20238;-80
2023/02/13 04:51:13;;;;;;;30.13;16.63;;;;;;;;;;5053637;28;20223;-79
2023/02/13 04:53:41;;;;;;;32.63;17.27;;;;;;;;;;5054685;28;20296;-79
2023/02/13 04:56:08;;;;;;;35.47;17.90;;;;;;;;;;5052435;28;20265;-79
2023/02/13 04:58:37;;;;;;;31.43;17.20;;;;;;;;;;5051799;28;20232;-79
2023/02/13 05:01:04;;;;;;;32.60;17.90;;;;;;;;;;5050044;28;20760;-79
2023/02/13 05:03:31;;;;;;;34.67;18.23;;;;;;;;;;5053708;28;20333;-79
2023/02/13 05:05:58;;;;;;;29.93;17.00;;;;;;;;;;5053646;28;20266;-79
2023/02/13 05:08:25;;;;;;;34.27;18.23;;;;;;;;;;5053498;28;20288;-79
2023/02/13 05:10:53;;;;;;;35.23;17.70;;;;;;;;;;5053611;28;20832;-80
2023/02/13 05:13:21;;;;;;;35.37;18.50;;;;;;;;;;5052954;28;20252;-79
2023/02/13 05:15:51;;;;;;;36.40;18.83;;;;;;;;;;5051955;28;20235;-79
2023/02/13 05:18:18;;;;;;;35.03;18.40;;;;;;;;;;5052424;28;20205;-78
2023/02/13 05:23:21;;;;;;;40.07;19.47;;;;;;;;;;5050997;28;20192;-78
2023/02/13 05:23:32;;;;;;;39.17;18.50;;;;;;;;;;5051708;28;20209;-78
2023/02/13 05:25:59;;;;;;;34.67;18.80;;;;;;;;;;5052026;28;20283;-79
2023/02/13 05:31:13;;;;;;;37.50;19.60;;;;;;;;;;5050950;28;20747;-79
2023/02/13 05:33:40;;;;;;;36.57;19.13;;;;;;;;;;5032553;28;20197;-79
2023/02/13 05:36:08;;;;;;;38.33;19.13;;;;;;;;;;5045179;28;20208;-77
2023/02/13 05:38:35;;;;;;;37.13;18.83;;;;;;;;;;5051130;28;20636;-79
2023/02/13 05:41:02;;;;;;;37.30;19.27;;;;;;;;;;5051553;28;20239;-79
2023/02/13 05:43:29;;;;;;;37.27;18.80;;;;;;;;;;5051468;28;20235;-82
2023/02/13 05:46:04;;;;;;;36.20;17.97;;;;;;;;;;5050998;28;20664;-78
2023/02/13 05:48:33;;;;;;;34.83;17.97;;;;;;;;;;5038015;28;20293;-79
2023/02/13 05:51:00;;;;;;;36.20;18.23;;;;;;;;;;5043106;28;20261;-78
2023/02/13 05:53:28;;;;;;;36.27;18.23;;;;;;;;;;5051549;28;20238;-78
2023/02/13 05:55:55;;;;;;;33.60;19.37;;;;;;;;;;5051785;28;20195;-78
2023/02/13 05:58:22;;;;;;;39.83;18.53;;;;;;;;;;5050084;28;20239;-79
2023/02/13 06:00:50;;;;;;;38.33;18.07;;;;;;;;;;5051194;28;20634;-78
2023/02/13 06:03:17;;;;;;;38.37;18.70;;;;;;;;;;5050065;28;20287;-79
2023/02/13 06:05:45;;;;;;;33.90;18.57;;;;;;;;;;5050900;28;20251;-77
2023/02/13 06:08:13;;;;;;;38.30;18.87;;;;;;;;;;5046152;28;20290;-78
2023/02/13 06:10:40;;;;;;;38.73;19.20;;;;;;;;;;5048688;28;20740;-77
2023/02/13 06:13:07;;;;;;;32.37;17.33;;;;;;;;;;5012097;28;1114936;-78
2023/02/13 06:15:34;;;;;;;35.17;18.37;;;;;;;;;;5051789;28;20223;-78
2023/02/13 06:18:01;;;;;;;34.97;18.27;;;;;;;;;;5050971;28;20311;-77
2023/02/13 06:20:28;;;;;;;36.20;18.93;;;;;;;;;;5051779;28;20294;-76
2023/02/13 06:22:57;;;;;;;39.03;19.57;;;;;;;;;;5051927;28;20294;-77
2023/02/13 06:25:24;;;;;;;38.13;19.40;;;;;;;;;;5051636;28;20223;-76
2023/02/13 06:27:51;;;;;;;44.80;20.97;;;;;;;;;;5050675;28;20294;-76
2023/02/13 06:30:19;;;;;;;39.07;19.23;;;;;;;;;;5051927;28;20228;-79
2023/02/13 06:32:47;;;;;;;45.07;22.70;;;;;;;;;;5051408;28;20967;-80
2023/02/13 06:35:14;;;;;;;42.03;22.37;;;;;;;;;;5042982;28;20742;-79
2023/02/13 06:37:43;;;;;;;41.83;21.90;;;;;;;;;;5044975;28;20302;-80
2023/02/13 06:40:13;;;;;;;37.60;20.47;;;;;;;;;;5051556;28;20208;-80
2023/02/13 06:42:40;;;;;;;75.70;42.03;;;;;;;;;;5050664;28;21096;-78
2023/02/13 06:45:08;;;;;;;155.23;103.67;;;;;;;;;;5051623;28;20577;-79
2023/02/13 06:47:35;;;;;;;267.67;157.70;;;;;;;;;;5051268;28;20227;-77
2023/02/13 06:50:03;;;;;;;247.27;132.50;;;;;;;;;;5050913;28;20204;-78
2023/02/13 06:52:30;;;;;;;179.63;101.87;;;;;;;;;;5050493;28;20638;-79
2023/02/13 06:54:57;;;;;;;229.93;131.87;;;;;;;;;;5051643;28;20316;-78
2023/02/13 06:57:26;;;;;;;473.77;297.63;;;;;;;;;;5049473;28;20255;-79
2023/02/13 06:59:53;;;;;;;195.03;121.20;;;;;;;;;;5050949;28;20665;-78
2023/02/13 07:02:20;;;;;;;159.87;111.93;;;;;;;;;;5050937;28;20203;-79
2023/02/13 07:04:47;;;;;;;208.07;133.17;;;;;;;;;;5049146;28;20291;-79
2023/02/13 07:07:15;;;;;;;101.13;57.57;;;;;;;;;;5032963;28;20255;-77
2023/02/13 07:09:42;;;;;;;58.07;32.13;;;;;;;;;;5049773;28;20664;-78
2023/02/13 07:12:09;;;;;;;52.77;26.27;;;;;;;;;;5050772;28;20200;-78
2023/02/13 07:14:38;;;;;;;100.60;65.07;;;;;;;;;;5051356;28;20262;-78
2023/02/13 07:17:06;;;;;;;97.27;64.20;;;;;;;;;;5050839;28;20200;-78
2023/02/13 07:19:33;;;;;;;92.53;59.23;;;;;;;;;;5048898;28;20231;-78
2023/02/13 07:22:00;;;;;;;71.33;42.33;;;;;;;;;;5050953;28;20227;-75
2023/02/13 07:24:27;;;;;;;60.53;33.60;;;;;;;;;;5049769;28;20220;-76
2023/02/13 07:26:55;;;;;;;65.27;38.47;;;;;;;;;;5050067;28;20244;-78
2023/02/13 07:29:22;;;;;;;62.73;36.70;;;;;;;;;;5048909;28;20247;-79
2023/02/13 07:31:50;;;;;;;62.57;42.13;;;;;;;;;;5050682;28;20250;-77
2023/02/13 07:34:18;;;;;;;60.27;37.93;;;;;;;;;;5050834;28;20231;-77
2023/02/13 07:36:45;;;;;;;69.03;40.57;;;;;;;;;;5050107;28;20295;-80
2023/02/13 07:39:12;;;;;;;45.80;25.83;;;;;;;;;;5051194;28;20288;-77
2023/02/13 07:41:39;;;;;;;52.03;24.77;;;;;;;;;;5049941;28;20304;-78
2023/02/13 07:44:06;;;;;;;57.37;29.70;;;;;;;;;;5049469;28;20213;-78
2023/02/13 07:46:34;;;;;;;59.07;30.60;;;;;;;;;;5050013;28;20270;-76
2023/02/13 07:49:02;;;;;;;70.83;37.70;;;;;;;;;;5050690;28;20293;-79
2023/02/13 07:51:30;;;;;;;64.33;30.63;;;;;;;;;;5048637;28;20234;-77
2023/02/13 07:53:57;;;;;;;56.67;30.87;;;;;;;;;;5051251;28;20790;-78
2023/02/13 07:56:24;;;;;;;64.20;32.63;;;;;;;;;;5049759;28;20290;-79
2023/02/13 07:58:51;;;;;;;69.90;35.77;;;;;;;;;;5050374;28;20314;-77
2023/02/13 08:01:19;;;;;;;65.60;35.10;;;;;;;;;;5048651;28;20208;-78
2023/02/13 08:03:50;;;;;;;146.63;61.80;;;;;;;;;;5051302;28;20287;-78
2023/02/13 08:06:19;;;;;;;124.30;56.43;;;;;;;;;;5049392;28;20707;-78
2023/02/13 08:08:46;;;;;;;79.03;44.73;;;;;;;;;;5050659;28;20290;-78
2023/02/13 08:14:09;;;;;;;60.90;38.63;;;;;;;;;;5048958;28;20242;-77
2023/02/13 08:16:36;;;;;;;37.13;25.27;;;;;;;;;;5049850;28;20214;-77
2023/02/13 08:19:03;;;;;;;33.10;22.90;;;;;;;;;;5051044;28;20232;-77
2023/02/13 08:21:34;;;;;;;26.67;19.23;;;;;;;;;;5049395;28;20289;-78
2023/02/13 08:24:01;;;;;;;29.00;21.47;;;;;;;;;;5050918;28;20206;-79
2023/02/13 08:26:28;;;;;;;26.73;19.53;;;;;;;;;;5047925;28;20766;-78
2023/02/13 08:28:55;;;;;;;28.53;20.67;;;;;;;;;;5039999;28;20239;-77
2023/02/13 08:31:23;;;;;;;35.67;25.73;;;;;;;;;;5041070;28;20287;-78
2023/02/13 08:33:50;;;;;;;36.60;27.20;;;;;;;;;;5040380;28;20189;-78
2023/02/13 08:36:18;;;;;;;36.97;26.17;;;;;;;;;;5041052;28;20320;-78
2023/02/13 08:38:48;;;;;;;26.60;20.50;;;;;;;;;;5041904;28;20224;-79
2023/02/13 08:41:17;;;;;;;24.50;19.20;;;;;;;;;;5040661;28;20300;-78
2023/02/13 08:43:44;;;;;;;26.80;20.07;;;;;;;;;;5044690;28;20291;-79
2023/02/13 08:46:11;;;;;;;20.23;17.93;;;;;;;;;;5041749;28;20612;-78
2023/02/13 08:48:38;;;;;;;23.47;18.47;;;;;;;;;;5038697;28;20227;-77
2023/02/13 08:51:07;;;;;;;21.23;16.63;;;;;;;;;;5044951;28;20287;-78
2023/02/13 08:53:35;;;;;;;21.30;17.07;;;;;;;;;;5042300;28;20204;-76
2023/02/13 08:56:03;;;;;;;21.90;17.03;;;;;;;;;;5042037;28;20253;-77
2023/02/13 08:58:31;;;;;;;19.60;16.30;;;;;;;;;;5040118;28;20286;-77
2023/02/13 09:00:58;;;;;;;20.90;17.27;;;;;;;;;;5042664;28;20609;-77
2023/02/13 09:03:25;;;;;;;22.17;17.80;;;;;;;;;;5040748;28;20291;-77
2023/02/13 09:05:52;;;;;;;20.15;16.55;;;;;;;;;;5042196;28;20205;-77
2023/02/13 09:08:20;;;;;;;20.92;17.42;;;;;;;;;;5042415;28;20323;-78
2023/02/13 09:10:47;;;;;;;24.38;21.60;;;;;;;;;;5049438;28;20703;-80
2023/02/13 09:13:15;;;;;;;24.67;21.77;;;;;;;;;;5049533;28;20284;-79
2023/02/13 09:15:42;;;;;;;22.95;19.05;;;;;;;;;;5044268;28;20673;-77
2023/02/13 09:18:10;;;;;;;22.13;18.35;;;;;;;;;;5042224;28;20258;-78
2023/02/13 09:20:37;;;;;;;20.77;17.90;;;;;;;;;;5052181;28;20279;-79
2023/02/13 09:23:04;;;;;;;20.63;17.58;;;;;;;;;;5052671;28;20231;-78
2023/02/13 09:25:31;;;;;;;19.67;17.33;;;;;;;;;;5052448;28;20231;-78
2023/02/13 09:28:00;;;;;;;22.83;17.50;;;;;;;;;;5053108;28;20314;-78
2023/02/13 09:30:28;;;;;;;21.10;18.43;;;;;;;;;;5054115;28;20235;-77
2023/02/13 09:32:56;;;;;;;20.47;17.67;;;;;;;;;;5051386;28;20651;-79
2023/02/13 09:35:23;;;;;;;21.70;18.37;;;;;;;;;;5037006;28;20226;-78
2023/02/13 09:37:50;;;;;;;22.63;18.50;;;;;;;;;;5053215;28;20203;-77
2023/02/13 09:40:19;;;;;;;22.87;17.90;;;;;;;;;;5053123;28;20278;-78
2023/02/13 09:42:46;;;;;;;22.40;18.80;;;;;;;;;;5051647;28;20236;-78
2023/02/13 09:45:14;;;;;;;23.13;19.33;;;;;;;;;;5053158;28;20772;-78
2023/02/13 09:47:44;;;;;;;23.27;18.60;;;;;;;;;;5051064;28;20302;-79
2023/02/13 09:50:14;;;;;;;23.43;19.17;;;;;;;;;;5033810;28;20283;-80
2023/02/13 09:52:44;;;;;;;24.73;19.87;;;;;;;;;;5047574;28;20232;-79
2023/02/13 09:55:15;;;;;;;24.57;19.57;;;;;;;;;;5052576;28;20196;-79
2023/02/13 09:57:44;;;;;;;24.30;19.40;;;;;;;;;;5048637;28;20294;-78
2023/02/13 10:00:16;;;;;;;28.30;20.57;;;;;;;;;;5052312;28;20235;-79
2023/02/13 10:02:54;;;;;;;25.03;20.37;;;;;;;;;;5052158;28;20275;-78
2023/02/13 10:05:34;;;;;;;26.53;20.47;;;;;;;;;;5046775;28;20696;-78
2023/02/13 10:08:05;;;;;;;25.10;20.00;;;;;;;;;;5048274;28;20267;-79
2023/02/13 10:10:35;;;;;;;25.77;19.80;;;;;;;;;;5053132;28;20303;-79
2023/02/13 10:13:09;;;;;;;26.97;21.40;;;;;;;;;;5050908;28;21147;-79
2023/02/13 10:15:42;;;;;;;27.87;20.43;;;;;;;;;;5049929;28;20292;-79
2023/02/13 10:18:13;;;;;;;26.33;21.00;;;;;;;;;;5054555;28;20718;-79
2023/02/13 10:20:42;;;;;;;24.67;20.30;;;;;;;;;;5049711;28;20219;-79
2023/02/13 10:23:16;;;;;;;25.07;20.50;;;;;;;;;;5051152;28;20287;-77
2023/02/13 10:25:47;;;;;;;26.17;20.60;;;;;;;;;;5050572;28;20291;-78
2023/02/13 10:28:16;;;;;;;24.20;19.77;;;;;;;;;;5056142;28;20258;-78
2023/02/13 10:30:47;;;;;;;25.50;20.27;;;;;;;;;;5051428;28;20234;-78
2023/02/13 10:33:18;;;;;;;24.30;20.23;;;;;;;;;;5058696;28;20294;-78
2023/02/13 10:35:46;;;;;;;25.83;20.57;;;;;;;;;;5049425;28;20238;-77
2023/02/13 10:38:15;;;;;;;24.23;20.30;;;;;;;;;;5048528;28;20249;-76
2023/02/13 10:40:48;;;;;;;24.90;20.93;;;;;;;;;;5052174;28;20195;-76
2023/02/13 10:43:18;;;;;;;23.57;20.30;;;;;;;;;;5050308;28;20307;-78
2023/02/13 10:45:57;;;;;;;27.67;21.07;;;;;;;;;;5049512;28;20330;-77
2023/02/13 10:48:35;;;;;;;25.60;20.03;;;;;;;;;;5050199;28;20277;-78
2023/02/13 10:51:05;;;;;;;23.27;19.67;;;;;;;;;;5048955;28;20258;-77
2023/02/13 10:53:36;;;;;;;22.97;19.23;;;;;;;;;;5050296;28;20620;-76
2023/02/13 10:56:16;;;;;;;24.60;20.07;;;;;;;;;;5043498;28;20295;-77
2023/02/13 10:58:52;;;;;;;25.33;19.40;;;;;;;;;;5043057;28;20210;-76
2023/02/13 11:01:22;;;;;;;25.77;19.60;;;;;;;;;;5043732;28;20356;-77
2023/02/13 11:04:01;;;;;;;23.17;19.60;;;;;;;;;;5044292;28;20308;-77
2023/02/13 11:06:29;;;;;;;25.53;19.90;;;;;;;;;;5046441;28;20287;-77
2023/02/13 11:08:56;;;;;;;25.43;19.67;;;;;;;;;;5050410;28;20300;-78
2023/02/13 11:11:30;;;;;;;23.00;19.77;;;;;;;;;;5045124;28;20200;-78
2023/02/13 11:14:12;;;;;;;26.35;19.40;;;;;;;;;;5051571;28;20314;-78
2023/02/13 11:16:41;;;;;;;25.17;19.73;;;;;;;;;;5039470;28;20287;-79
2023/02/13 11:19:16;;;;;;;23.42;19.55;;;;;;;;;;5045125;28;20290;-77
2023/02/13 11:21:44;;;;;;;23.02;18.98;;;;;;;;;;5032141;28;20597;-77
2023/02/13 11:24:18;;;;;;;22.73;18.30;;;;;;;;;;5047369;28;20299;-77
2023/02/13 11:26:50;;;;;;;23.90;18.70;;;;;;;;;;5032398;28;20290;-78
2023/02/13 11:29:19;;;;;;;21.52;18.65;;;;;;;;;;5051627;28;20759;-77
2023/02/13 11:31:46;;;;;;;23.75;19.40;;;;;;;;;;5051267;28;20695;-77
2023/02/13 11:34:26;;;;;;;22.15;19.65;;;;;;;;;;5052156;28;20223;-77
2023/02/13 11:36:55;;;;;;;21.35;18.60;;;;;;;;;;5039023;28;20639;-76
2023/02/13 11:39:23;;;;;;;21.38;17.67;;;;;;;;;;5051525;28;20196;-77
2023/02/13 11:41:50;;;;;;;21.40;17.90;;;;;;;;;;5050544;28;20188;-78
2023/02/13 11:44:23;;;;;;;20.95;17.85;;;;;;;;;;5051604;28;20195;-78
2023/02/13 11:46:51;;;;;;;22.90;18.45;;;;;;;;;;5051583;28;20286;-77
2023/02/13 11:49:20;;;;;;;21.77;18.58;;;;;;;;;;5050994;28;20274;-77
2023/02/13 11:51:50;;;;;;;19.95;17.17;;;;;;;;;;5051674;28;20239;-77
2023/02/13 11:54:25;;;;;;;20.80;17.40;;;;;;;;;;5040092;28;20632;-77
2023/02/13 11:56:53;;;;;;;20.77;17.40;;;;;;;;;;5051104;28;20234;-78
2023/02/13 11:59:22;;;;;;;21.07;17.97;;;;;;;;;;5050904;28;20295;-76
2023/02/13 12:02:01;;;;;;;23.87;17.90;;;;;;;;;;5049859;28;20682;-77
2023/02/13 12:04:29;;;;;;;23.37;17.53;;;;;;;;;;5049346;28;20195;-78
2023/02/13 12:07:02;;;;;;;21.70;17.30;;;;;;;;;;5051097;28;20610;-78
2023/02/13 12:09:30;;;;;;;23.63;18.03;;;;;;;;;;5048239;28;20314;-78
2023/02/13 12:12:01;;;;;;;20.87;16.57;;;;;;;;;;5050881;28;20191;-78
2023/02/13 12:14:31;;;;;;;20.17;16.77;;;;;;;;;;5050289;28;20242;-77
2023/02/13 12:17:00;;;;;;;22.17;16.50;;;;;;;;;;5051040;28;20286;-76
2023/02/13 12:19:30;;;;;;;22.07;16.67;;;;;;;;;;5034556;28;20295;-77
2023/02/13 12:22:15;;;;;;;18.92;15.05;;;;;;;;;;5050333;28;20235;-78
2023/02/13 12:24:49;;;;;;;19.75;14.70;;;;;;;;;;5030738;28;20198;-78
2023/02/13 12:27:20;;;;;;;19.05;15.07;;;;;;;;;;5038013;28;20274;-76
2023/02/13 12:30:00;;;;;;;18.38;14.50;;;;;;;;;;5042686;28;20245;-76
2023/02/13 12:32:34;;;;;;;19.90;14.95;;;;;;;;;;5034898;28;20307;-76
2023/02/13 12:35:16;;;;;;;17.63;14.77;;;;;;;;;;5031052;28;20195;-76
2023/02/13 12:37:49;;;;;;;19.17;15.27;;;;;;;;;;5047829;28;20257;-76
2023/02/13 12:40:40;;;;;;;17.53;14.17;;;;;;;;;;5048666;28;20764;-76
2023/02/13 12:43:15;;;;;;;19.30;14.85;;;;;;;;;;5035308;28;20200;-76
2023/02/13 12:45:45;;;;;;;17.95;14.43;;;;;;;;;;5050567;28;20214;-78
2023/02/13 12:48:25;;;;;;;18.65;14.05;;;;;;;;;;5050477;28;20724;-77
2023/02/13 12:50:57;;;;;;;17.23;14.45;;;;;;;;;;5050852;28;20226;-78
2023/02/13 12:53:36;;;;;;;18.83;14.35;;;;;;;;;;5046903;28;20204;-75
2023/02/13 12:56:13;;;;;;;16.92;14.15;;;;;;;;;;5043969;28;20676;-76
2023/02/13 12:58:46;;;;;;;16.30;13.85;;;;;;;;;;5046210;28;20245;-76
2023/02/13 13:01:16;;;;;;;19.15;14.10;;;;;;;;;;5052142;28;20220;-79
2023/02/13 13:03:46;;;;;;;16.93;13.53;;;;;;;;;;5047898;28;20202;-78
2023/02/13 13:06:29;;;;;;;16.00;12.97;;;;;;;;;;5044196;28;20224;-78
2023/02/13 13:09:05;;;;;;;16.17;13.77;;;;;;;;;;5046580;28;20357;-77
2023/02/13 13:11:43;;;;;;;19.07;13.93;;;;;;;;;;5047915;28;20199;-77
2023/02/13 13:14:15;;;;;;;17.47;14.00;;;;;;;;;;5048368;28;20611;-74
2023/02/13 13:16:47;;;;;;;17.67;14.17;;;;;;;;;;5046717;28;20235;-78
2023/02/13 13:19:19;;;;;;;16.07;13.53;;;;;;;;;;5045146;28;20203;-77
2023/02/13 13:21:51;;;;;;;16.20;12.63;;;;;;;;;;5047151;28;20679;-75
2023/02/13 13:24:24;;;;;;;15.03;12.57;;;;;;;;;;5046766;28;20206;-78
2023/02/13 13:26:56;;;;;;;19.10;15.33;;;;;;;;;;5046773;28;20250;-78
2023/02/13 13:29:24;;;;;;;18.53;16.03;;;;;;;;;;5046620;28;20226;-79
2023/02/13 13:31:53;;;;;;;26.63;20.73;;;;;;;;;;5046215;28;20243;-77
2023/02/13 13:34:22;;;;;;;20.83;17.10;;;;;;;;;;5045162;28;20283;-78
2023/02/13 13:36:51;;;;;;;17.73;15.03;;;;;;;;;;5045491;28;20285;-78
2023/02/13 13:39:26;;;;;;;16.93;13.17;;;;;;;;;;5043524;28;20296;-77
2023/02/13 13:42:01;;;;;;;15.63;13.03;;;;;;;;;;5047765;28;20209;-78
2023/02/13 13:44:41;;;;;;;19.77;14.57;;;;;;;;;;5052377;28;20203;-78
2023/02/13 13:47:17;;;;;;;18.20;14.83;;;;;;;;;;5051373;28;20287;-76
2023/02/13 13:49:49;;;;;;;16.27;12.70;;;;;;;;;;5052610;28;20783;-78
2023/02/13 13:52:23;;;;;;;17.17;12.90;;;;;;;;;;5053333;28;20230;-77
2023/02/13 13:54:54;;;;;;;15.70;12.70;;;;;;;;;;5043439;28;20219;-77
2023/02/13 13:57:23;;;;;;;15.23;12.80;;;;;;;;;;5032024;28;20674;-77
2023/02/13 14:00:01;;;;;;;17.27;13.70;;;;;;;;;;5032743;28;20295;-78
2023/02/13 14:02:39;;;;;;;14.07;12.13;;;;;;;;;;5034406;28;20284;-77
2023/02/13 14:05:18;;;;;;;15.43;12.83;;;;;;;;;;5047651;28;20226;-78
2023/02/13 14:07:46;;;;;;;16.27;12.83;;;;;;;;;;5048023;28;20214;-78
2023/02/13 14:10:41;;;;;;;15.93;12.40;;;;;;;;;;5042638;28;20338;-78
2023/02/13 14:13:09;;;;;;;15.70;13.33;;;;;;;;;;5047558;28;20298;-77
2023/02/13 14:15:50;;;;;;;16.90;13.13;;;;;;;;;;5035878;28;20231;-77
2023/02/13 14:18:22;;;;;;;17.10;13.27;;;;;;;;;;5037594;28;20196;-77
2023/02/13 14:20:54;;;;;;;16.63;13.17;;;;;;;;;;5034910;28;20298;-77
2023/02/13 14:23:39;;;;;;;15.83;12.97;;;;;;;;;;5046654;28;20228;-77
2023/02/13 14:26:13;;;;;;;17.33;12.80;;;;;;;;;;5034556;28;20227;-78
2023/02/13 14:28:42;;;;;;;15.57;13.00;;;;;;;;;;5046476;28;20333;-77
2023/02/13 14:31:15;;;;;;;14.87;12.87;;;;;;;;;;5039308;28;20315;-77
2023/02/13 14:33:43;;;;;;;15.30;12.63;;;;;;;;;;5046774;28;20570;-77
2023/02/13 14:36:20;;;;;;;17.53;12.37;;;;;;;;;;5047609;28;20200;-78
2023/02/13 14:38:55;;;;;;;14.73;12.17;;;;;;;;;;5047301;28;20263;-77
2023/02/13 14:41:41;;;;;;;15.40;12.13;;;;;;;;;;5047454;28;20214;-77
2023/02/13 14:44:16;;;;;;;15.73;12.50;;;;;;;;;;5047467;28;20290;-77
2023/02/13 14:46:44;;;;;;;14.53;12.37;;;;;;;;;;5047072;28;20286;-78
2023/02/13 14:49:14;;;;;;;14.83;12.40;;;;;;;;;;5046864;28;20216;-78
2023/02/13 14:51:45;;;;;;;16.53;11.87;;;;;;;;;;5046229;28;20212;-77
2023/02/13 14:54:19;;;;;;;17.63;12.50;;;;;;;;;;5046390;28;20280;-77
2023/02/13 14:56:47;;;;;;;15.40;12.07;;;;;;;;;;5046652;28;20675;-78
2023/02/13 14:59:17;;;;;;;15.83;12.47;;;;;;;;;;5036579;28;20283;-78
2023/02/13 15:01:48;;;;;;;17.67;12.83;;;;;;;;;;5034426;28;20242;-78
2023/02/13 15:04:17;;;;;;;16.03;13.23;;;;;;;;;;5036458;28;20650;-78
2023/02/13 15:06:45;;;;;;;15.67;12.80;;;;;;;;;;5034509;28;20283;-78
2023/02/13 15:09:21;;;;;;;15.00;12.47;;;;;;;;;;5034634;28;20318;-77
2023/02/13 15:11:48;;;;;;;17.27;12.60;;;;;;;;;;5046945;28;20282;-79
2023/02/13 15:14:18;;;;;;;16.37;12.70;;;;;;;;;;5036857;28;20252;-78